createdAt,value
2023-02-23T00:01:55.156Z,38.57
2023-02-23T00:04:24.056Z,41.37
2023-02-23T00:06:52.127Z,37.83
2023-02-23T00:09:24.401Z,38.50
2023-02-23T00:11:55.844Z,38.10
2023-02-23T00:14:28.612Z,39.70
2023-02-23T00:16:57.948Z,39.23
2023-02-23T00:19:26.158Z,39.80
2023-02-23T00:21:54.858Z,36.80
2023-02-23T00:24:23.204Z,37.00
2023-02-23T00:26:51.594Z,37.40
2023-02-23T00:29:23.162Z,37.03
2023-02-23T00:31:52.563Z,41.30
2023-02-23T00:34:21.999Z,40.37
2023-02-23T00:36:51.942Z,37.43
2023-02-23T00:39:21.770Z,39.50
2023-02-23T00:41:50.178Z,40.13
2023-02-23T00:44:18.299Z,40.97
2023-02-23T00:46:49.438Z,40.20
2023-02-23T00:49:17.329Z,38.30
2023-02-23T00:51:45.333Z,38.13
2023-02-23T00:54:15.075Z,42.80
2023-02-23T00:56:42.936Z,38.43
2023-02-23T00:59:11.576Z,37.07
2023-02-23T01:01:41.696Z,39.83
2023-02-23T01:04:12.669Z,43.13
2023-02-23T01:06:42.473Z,38.77
2023-02-23T01:09:13.533Z,39.97
2023-02-23T01:11:41.887Z,40.87
2023-02-23T01:14:11.585Z,39.90
2023-02-23T01:16:39.827Z,42.10
2023-02-23T01:19:08.841Z,39.77
2023-02-23T01:21:44.449Z,41.33
2023-02-23T01:24:15.168Z,41.10
2023-02-23T01:26:45.015Z,38.67
2023-02-23T01:29:14.974Z,40.40
2023-02-23T01:31:45.034Z,43.10
2023-02-23T01:34:14.387Z,43.10
2023-02-23T01:36:45.408Z,39.20
2023-02-23T01:39:15.239Z,37.90
2023-02-23T01:41:43.530Z,39.07
2023-02-23T01:44:44.760Z,43.90
2023-02-23T01:47:17.094Z,45.47
2023-02-23T01:49:44.896Z,40.73
2023-02-23T01:52:18.468Z,43.67
2023-02-23T01:54:50.645Z,44.70
2023-02-23T01:57:22.038Z,43.97
2023-02-23T01:59:51.272Z,44.90
2023-02-23T02:02:21.349Z,45.63
2023-02-23T02:04:52.136Z,42.67
2023-02-23T02:07:25.071Z,47.50
2023-02-23T02:10:09.529Z,45.70
2023-02-23T02:12:38.614Z,42.93
2023-02-23T02:15:16.924Z,41.23
2023-02-23T02:17:53.475Z,46.13
2023-02-23T02:21:18.502Z,43.37
2023-02-23T02:24:26.154Z,42.13
2023-02-23T02:27:11.613Z,44.40
2023-02-23T02:29:57.000Z,49.20
2023-02-23T02:33:11.043Z,46.53
2023-02-23T02:36:15.474Z,46.70
2023-02-23T02:38:54.750Z,46.30
2023-02-23T02:41:35.503Z,45.50
2023-02-23T02:44:12.020Z,51.37
2023-02-23T02:46:43.554Z,46.93
2023-02-23T02:49:19.273Z,47.83
2023-02-23T02:51:52.927Z,42.43
2023-02-23T02:54:26.684Z,43.10
2023-02-23T02:57:00.380Z,47.10
2023-02-23T02:59:47.044Z,42.30
2023-02-23T03:02:35.574Z,43.30
2023-02-23T03:05:30.747Z,46.03
2023-02-23T03:08:27.835Z,46.57
2023-02-23T03:11:20.103Z,47.17
2023-02-23T03:14:21.345Z,52.47
2023-02-23T03:17:19.332Z,47.77
2023-02-23T03:20:14.095Z,49.10
2023-02-23T03:23:10.039Z,47.93
2023-02-23T03:26:07.462Z,48.10
2023-02-23T03:28:59.444Z,46.37
2023-02-23T03:31:54.905Z,44.23
2023-02-23T03:34:47.537Z,47.83
2023-02-23T03:37:39.817Z,49.30
2023-02-23T03:40:32.295Z,49.73
2023-02-23T03:43:20.905Z,48.40
2023-02-23T03:46:08.367Z,49.57
2023-02-23T03:48:55.797Z,47.20
2023-02-23T03:51:44.580Z,48.03
2023-02-23T03:54:33.982Z,48.20
2023-02-23T03:57:23.188Z,48.97
2023-02-23T04:00:13.817Z,48.03
2023-02-23T04:03:02.500Z,49.33
2023-02-23T04:05:49.656Z,48.23
2023-02-23T04:08:38.267Z,52.20
2023-02-23T04:11:33.202Z,49.67
2023-02-23T04:14:04.691Z,51.57
2023-02-23T04:16:34.868Z,52.73
2023-02-23T04:19:04.001Z,53.67
2023-02-23T04:21:32.318Z,52.97
2023-02-23T04:24:00.042Z,49.07
2023-02-23T04:26:27.804Z,51.53
2023-02-23T04:28:55.562Z,51.07
2023-02-23T04:31:25.325Z,47.83
2023-02-23T04:33:53.293Z,47.10
2023-02-23T04:36:24.222Z,51.60
2023-02-23T04:38:51.989Z,48.73
2023-02-23T04:41:20.225Z,48.33
2023-02-23T04:43:48.198Z,49.27
2023-02-23T04:46:16.031Z,48.30
2023-02-23T04:48:43.826Z,52.27
2023-02-23T04:51:11.564Z,51.97
2023-02-23T04:53:40.687Z,55.70
2023-02-23T04:56:08.646Z,55.47
2023-02-23T04:58:36.432Z,56.10
2023-02-23T05:01:08.035Z,58.53
2023-02-23T05:03:36.155Z,59.90
2023-02-23T05:06:04.002Z,60.73
2023-02-23T05:08:32.128Z,60.00
2023-02-23T05:11:01.345Z,60.23
2023-02-23T05:13:29.143Z,59.07
2023-02-23T05:15:58.563Z,62.03
2023-02-23T05:18:31.320Z,63.40
2023-02-23T05:21:03.477Z,65.20
2023-02-23T05:23:31.494Z,60.37
2023-02-23T05:26:06.265Z,60.83
2023-02-23T05:28:38.691Z,64.47
2023-02-23T05:31:07.358Z,62.17
2023-02-23T05:33:42.271Z,62.00
2023-02-23T05:36:11.847Z,64.90
2023-02-23T05:38:40.596Z,65.13
2023-02-23T05:41:10.452Z,62.70
2023-02-23T05:43:38.585Z,68.07
2023-02-23T05:46:07.987Z,62.60
2023-02-23T05:48:36.445Z,62.80
2023-02-23T05:51:04.754Z,65.90
2023-02-23T05:53:32.746Z,65.10
2023-02-23T05:56:00.968Z,69.87
2023-02-23T05:58:30.503Z,65.53
2023-02-23T06:00:58.324Z,66.53
2023-02-23T06:03:26.376Z,67.20
2023-02-23T06:05:56.971Z,64.77
2023-02-23T06:08:24.941Z,70.73
2023-02-23T06:10:53.159Z,71.37
2023-02-23T06:13:22.181Z,65.20
2023-02-23T06:15:51.443Z,68.90
2023-02-23T06:18:19.248Z,66.40
2023-02-23T06:20:47.127Z,64.60
2023-02-23T06:23:15.734Z,68.07
2023-02-23T06:25:43.768Z,69.30
2023-02-23T06:28:11.562Z,68.83
2023-02-23T06:30:40.267Z,67.10
2023-02-23T06:33:09.546Z,67.37
2023-02-23T06:35:37.352Z,66.40
2023-02-23T06:38:06.290Z,60.73
2023-02-23T06:40:34.464Z,64.73
2023-02-23T06:43:03.561Z,65.43
2023-02-23T06:45:31.861Z,66.17
2023-02-23T06:47:59.798Z,68.60
2023-02-23T06:50:29.372Z,64.47
2023-02-23T06:52:57.712Z,69.77
2023-02-23T06:55:25.452Z,63.73
2023-02-23T06:57:54.238Z,64.30
2023-02-23T07:00:22.873Z,64.23
2023-02-23T07:02:50.736Z,64.53
2023-02-23T07:05:18.619Z,63.13
2023-02-23T07:07:47.941Z,59.83
2023-02-23T07:10:15.888Z,59.43
2023-02-23T07:12:43.705Z,63.57
2023-02-23T07:15:12.628Z,61.57
2023-02-23T07:17:40.430Z,63.73
2023-02-23T07:20:08.831Z,58.73
2023-02-23T07:22:38.600Z,57.63
2023-02-23T07:25:09.725Z,63.13
2023-02-23T07:27:37.644Z,61.17
2023-02-23T07:30:06.407Z,58.67
2023-02-23T07:32:34.331Z,63.00
2023-02-23T07:35:02.147Z,63.53
2023-02-23T07:37:29.906Z,62.70
2023-02-23T07:40:00.062Z,61.53
2023-02-23T07:42:30.480Z,62.77
2023-02-23T07:44:58.270Z,62.13
2023-02-23T07:47:31.046Z,62.40
2023-02-23T07:50:00.571Z,60.80
2023-02-23T07:52:28.243Z,61.53
2023-02-23T07:54:56.545Z,65.13
2023-02-23T07:57:25.034Z,65.67
2023-02-23T07:59:54.209Z,68.07
2023-02-23T08:02:21.971Z,58.57
2023-02-23T08:04:50.650Z,62.10
2023-02-23T08:07:18.389Z,61.00
2023-02-23T08:09:46.163Z,62.00
2023-02-23T08:12:15.422Z,61.07
2023-02-23T08:14:43.452Z,65.37
2023-02-23T08:17:12.815Z,61.33
2023-02-23T08:19:41.133Z,62.37
2023-02-23T08:22:10.251Z,63.90
2023-02-23T08:24:38.284Z,61.27
2023-02-23T08:27:06.381Z,58.80
2023-02-23T08:29:34.894Z,61.37
2023-02-23T08:32:04.137Z,59.97
2023-02-23T08:34:33.328Z,62.17
2023-02-23T08:37:01.117Z,61.27
2023-02-23T08:39:29.088Z,63.67
2023-02-23T08:41:57.344Z,61.13
2023-02-23T08:44:25.205Z,57.17
2023-02-23T08:46:55.324Z,61.17
2023-02-23T08:49:23.153Z,54.90
2023-02-23T08:51:52.781Z,53.27
2023-02-23T08:54:20.564Z,54.27
2023-02-23T08:56:48.269Z,45.77
2023-02-23T08:59:16.250Z,52.27
2023-02-23T09:01:44.098Z,47.93
2023-02-23T09:04:11.817Z,48.23
2023-02-23T09:06:40.937Z,51.33
2023-02-23T09:09:10.326Z,44.73
2023-02-23T09:11:38.063Z,45.47
2023-02-23T09:14:05.954Z,47.63
2023-02-23T09:16:33.964Z,45.17
2023-02-23T09:19:01.765Z,41.00
2023-02-23T09:21:30.005Z,41.80
2023-02-23T09:24:00.845Z,46.30
2023-02-23T09:26:29.995Z,43.77
2023-02-23T09:29:00.383Z,43.63
2023-02-23T09:31:28.796Z,45.40
2023-02-23T09:33:56.921Z,45.57
2023-02-23T09:36:26.467Z,40.37
2023-02-23T09:38:57.264Z,40.53
2023-02-23T09:41:58.277Z,42.87
2023-02-23T09:44:34.417Z,39.17
2023-02-23T09:47:13.758Z,38.83
2023-02-23T09:49:43.426Z,38.43
2023-02-23T09:52:19.197Z,38.50
2023-02-23T09:54:47.992Z,39.37
2023-02-23T09:57:24.114Z,40.63
2023-02-23T09:59:51.912Z,38.73
2023-02-23T10:02:25.331Z,37.43
2023-02-23T10:04:57.775Z,38.90
2023-02-23T10:07:35.882Z,37.03
2023-02-23T10:10:23.287Z,36.43
2023-02-23T10:13:03.869Z,39.17
2023-02-23T10:15:39.950Z,43.20
2023-02-23T10:18:17.628Z,42.60
2023-02-23T10:20:51.953Z,42.83
2023-02-23T10:23:31.273Z,42.73
2023-02-23T10:26:01.793Z,41.60
2023-02-23T10:28:35.524Z,41.27
2023-02-23T10:31:05.308Z,43.00
2023-02-23T10:33:38.333Z,40.27
2023-02-23T10:36:16.470Z,40.43
2023-02-23T10:38:44.252Z,41.87
2023-02-23T10:41:14.916Z,42.73
2023-02-23T10:43:44.307Z,42.60
2023-02-23T10:46:21.817Z,45.13
2023-02-23T10:48:51.966Z,40.50
2023-02-23T10:51:26.452Z,40.67
2023-02-23T10:53:54.493Z,39.37
2023-02-23T10:56:24.244Z,40.27
2023-02-23T10:58:55.673Z,42.47
2023-02-23T11:01:36.056Z,36.60
2023-02-23T11:04:17.247Z,41.93
2023-02-23T11:06:48.628Z,37.80
2023-02-23T11:09:41.260Z,38.23
2023-02-23T11:12:23.100Z,38.47
2023-02-23T11:14:54.427Z,36.43
2023-02-23T11:17:29.044Z,38.80
2023-02-23T11:20:02.546Z,38.83
2023-02-23T11:22:37.051Z,40.80
2023-02-23T11:25:16.567Z,42.37
2023-02-23T11:27:51.553Z,44.63
2023-02-23T11:30:25.320Z,45.63
2023-02-23T11:32:55.643Z,48.50
2023-02-23T11:35:30.611Z,47.03
2023-02-23T11:37:58.566Z,49.20
2023-02-23T11:40:27.954Z,52.23
2023-02-23T11:42:58.143Z,51.70
2023-02-23T11:45:33.565Z,51.13
2023-02-23T11:48:06.650Z,51.80
2023-02-23T11:50:36.917Z,53.17
2023-02-23T11:53:07.461Z,55.40
2023-02-23T11:55:38.568Z,53.67
2023-02-23T11:58:23.652Z,54.37
2023-02-23T12:01:00.839Z,55.23
2023-02-23T12:03:33.633Z,55.37
2023-02-23T12:06:02.404Z,58.93
2023-02-23T12:08:40.448Z,55.83
2023-02-23T12:11:13.483Z,57.13
2023-02-23T12:13:45.056Z,55.33
2023-02-23T12:16:19.952Z,60.27
2023-02-23T12:18:53.937Z,60.07
2023-02-23T12:21:31.971Z,56.13
2023-02-23T12:24:12.999Z,59.17
2023-02-23T12:26:48.741Z,57.17
2023-02-23T12:29:24.185Z,58.77
2023-02-23T12:31:58.863Z,54.83
2023-02-23T12:34:32.071Z,60.10
2023-02-23T12:37:07.541Z,60.67
2023-02-23T12:39:40.913Z,54.73
2023-02-23T12:42:17.314Z,54.90
2023-02-23T12:45:01.806Z,52.83
2023-02-23T12:47:37.192Z,46.13
2023-02-23T12:50:13.373Z,48.77
2023-02-23T12:52:49.397Z,47.73
2023-02-23T12:55:24.460Z,45.70
2023-02-23T12:57:59.606Z,45.50
2023-02-23T13:00:39.250Z,46.60
2023-02-23T13:03:46.220Z,45.77
2023-02-23T13:06:21.552Z,48.07
2023-02-23T13:09:05.967Z,44.90
2023-02-23T13:11:52.897Z,46.43
2023-02-23T13:14:27.670Z,50.53
2023-02-23T13:17:01.088Z,50.70
2023-02-23T13:19:36.260Z,45.67
2023-02-23T13:22:25.244Z,45.17
2023-02-23T13:24:56.278Z,41.73
2023-02-23T13:27:29.833Z,43.77
2023-02-23T13:29:59.134Z,37.60
2023-02-23T13:32:32.034Z,34.97
2023-02-23T13:35:02.523Z,33.33
2023-02-23T13:37:38.979Z,32.73
2023-02-23T13:40:26.234Z,30.10
2023-02-23T13:43:07.008Z,30.00
2023-02-23T13:46:05.523Z,31.73
2023-02-23T13:48:56.094Z,34.10
2023-02-23T13:51:36.008Z,31.40
2023-02-23T13:54:07.768Z,29.43
2023-02-23T13:56:42.957Z,31.00
2023-02-23T13:59:17.864Z,30.53
2023-02-23T14:01:48.900Z,30.37
2023-02-23T14:04:22.590Z,32.60
2023-02-23T14:07:00.757Z,31.70
2023-02-23T14:09:32.262Z,30.47
2023-02-23T14:12:19.399Z,29.13
2023-02-23T14:14:47.973Z,32.07
2023-02-23T14:17:44.194Z,29.37
2023-02-23T14:20:29.591Z,28.73
2023-02-23T14:23:27.632Z,27.85
2023-02-23T14:26:12.101Z,25.57
2023-02-23T14:28:41.417Z,27.50
2023-02-23T14:31:22.494Z,24.27
2023-02-23T14:33:59.566Z,27.50
2023-02-23T14:36:38.708Z,23.23
2023-02-23T14:39:16.323Z,22.43
2023-02-23T14:41:50.089Z,24.50
2023-02-23T14:44:30.036Z,25.80
2023-02-23T14:47:03.373Z,26.57
2023-02-23T14:49:35.796Z,25.73
2023-02-23T14:52:07.890Z,26.97
2023-02-23T14:54:38.472Z,26.57
2023-02-23T14:57:08.650Z,27.27
2023-02-23T14:59:39.827Z,25.33
2023-02-23T15:02:12.851Z,27.63
2023-02-23T15:04:42.139Z,29.00
2023-02-23T15:07:18.578Z,25.67
2023-02-23T15:09:48.541Z,25.63
2023-02-23T15:12:20.383Z,27.07
2023-02-23T15:14:50.730Z,28.73
2023-02-23T15:17:21.975Z,27.97
2023-02-23T15:20:05.970Z,33.40
2023-02-23T15:22:41.962Z,29.23
2023-02-23T15:25:17.437Z,30.17
2023-02-23T15:27:46.620Z,28.23
2023-02-23T15:30:26.580Z,29.33
2023-02-23T15:33:02.041Z,32.13
2023-02-23T15:35:33.932Z,28.90
2023-02-23T15:38:14.227Z,31.77
2023-02-23T15:40:59.171Z,32.77
2023-02-23T15:43:29.875Z,30.87
2023-02-23T15:46:03.548Z,30.03
2023-02-23T15:48:46.799Z,28.13
2023-02-23T15:51:24.048Z,28.50
2023-02-23T15:53:52.102Z,32.17
2023-02-23T15:56:26.650Z,33.67
2023-02-23T15:58:59.608Z,36.70
2023-02-23T16:01:30.322Z,41.33
2023-02-23T16:04:01.990Z,39.57
2023-02-23T16:06:34.533Z,39.83
2023-02-23T16:09:13.518Z,39.07
2023-02-23T16:11:43.026Z,40.77
2023-02-23T16:14:16.749Z,44.23
2023-02-23T16:16:46.685Z,42.50
2023-02-23T16:19:16.255Z,42.43
2023-02-23T16:21:49.390Z,39.03
2023-02-23T16:24:22.584Z,41.07
2023-02-23T16:26:57.193Z,38.43
2023-02-23T16:29:29.171Z,41.93
2023-02-23T16:32:00.894Z,44.10
2023-02-23T16:34:34.196Z,37.63
2023-02-23T16:37:05.378Z,39.77
2023-02-23T16:39:35.624Z,39.97
2023-02-23T16:42:10.310Z,37.60
2023-02-23T16:44:43.785Z,39.37
2023-02-23T16:47:30.525Z,38.43
2023-02-23T16:50:00.779Z,41.97
2023-02-23T16:52:30.316Z,39.13
2023-02-23T16:55:04.692Z,38.57
2023-02-23T16:57:43.043Z,40.80
2023-02-23T17:00:18.429Z,41.13
2023-02-23T17:02:46.679Z,40.83
2023-02-23T17:05:19.314Z,39.83
2023-02-23T17:07:48.542Z,45.87
2023-02-23T17:10:24.969Z,42.87
2023-02-23T17:12:56.542Z,36.50
2023-02-23T17:15:27.507Z,39.43
2023-02-23T17:17:56.154Z,39.83
2023-02-23T17:20:25.994Z,40.30
2023-02-23T17:22:55.480Z,39.60
2023-02-23T17:25:26.695Z,41.23
2023-02-23T17:27:56.157Z,39.67
2023-02-23T17:30:26.267Z,40.63
2023-02-23T17:32:56.506Z,42.90
2023-02-23T17:35:26.891Z,41.60
2023-02-23T17:37:57.538Z,38.73
2023-02-23T17:40:33.630Z,39.20
2023-02-23T17:43:06.265Z,38.83
2023-02-23T17:45:34.033Z,40.83
2023-02-23T17:48:01.757Z,39.17
2023-02-23T17:50:30.122Z,39.63
2023-02-23T17:52:58.339Z,38.53
2023-02-23T17:55:26.786Z,38.37
2023-02-23T17:57:54.691Z,36.60
2023-02-23T18:00:25.057Z,39.93
2023-02-23T18:02:52.892Z,38.17
2023-02-23T18:05:21.649Z,33.67
2023-02-23T18:07:49.530Z,35.10
2023-02-23T18:10:17.674Z,37.40
2023-02-23T18:12:45.666Z,36.20
2023-02-23T18:15:13.517Z,35.17
2023-02-23T18:17:42.655Z,34.90
2023-02-23T18:20:16.128Z,31.93
2023-02-23T18:22:44.355Z,32.00
2023-02-23T18:25:21.192Z,31.70
2023-02-23T18:27:51.734Z,29.93
2023-02-23T18:30:20.075Z,29.67
2023-02-23T18:32:49.424Z,30.53
2023-02-23T18:35:17.925Z,30.07
2023-02-23T18:37:45.702Z,28.60
2023-02-23T18:40:21.120Z,25.43
2023-02-23T18:42:56.549Z,32.13
2023-02-23T18:45:24.302Z,29.50
2023-02-23T18:47:53.902Z,36.00
2023-02-23T18:50:22.392Z,29.10
2023-02-23T18:52:51.720Z,29.53
2023-02-23T18:55:22.157Z,32.13
2023-02-23T18:57:50.439Z,30.77
2023-02-23T19:00:19.441Z,31.37
2023-02-23T19:02:47.407Z,31.33
2023-02-23T19:05:20.886Z,32.27
2023-02-23T19:07:49.672Z,28.27
2023-02-23T19:10:17.450Z,32.80
2023-02-23T19:12:45.224Z,28.20
2023-02-23T19:15:13.646Z,30.17
2023-02-23T19:17:41.460Z,31.87
2023-02-23T19:20:13.687Z,27.53
2023-02-23T19:22:43.574Z,27.47
2023-02-23T19:25:15.276Z,30.73
2023-02-23T19:27:43.443Z,28.47
2023-02-23T19:30:14.426Z,28.53
2023-02-23T19:32:43.658Z,28.40
2023-02-23T19:35:14.602Z,24.93
2023-02-23T19:37:48.568Z,25.70
2023-02-23T19:40:19.882Z,26.53
2023-02-23T19:42:49.487Z,24.60
2023-02-23T19:45:18.324Z,22.80
2023-02-23T19:47:46.242Z,21.87
2023-02-23T19:50:17.186Z,23.63
2023-02-23T19:52:46.581Z,24.53
2023-02-23T19:55:15.248Z,23.90
2023-02-23T19:57:43.100Z,23.30
2023-02-23T20:00:12.652Z,23.27
2023-02-23T20:02:43.494Z,24.60
2023-02-23T20:05:12.178Z,26.23
2023-02-23T20:07:40.075Z,23.77
2023-02-23T20:10:13.843Z,23.13
2023-02-23T20:12:41.844Z,21.90
2023-02-23T20:15:11.193Z,24.40
2023-02-23T20:17:39.973Z,23.50
2023-02-23T20:20:11.154Z,27.70
2023-02-23T20:22:41.350Z,23.57
2023-02-23T20:25:15.694Z,23.03
2023-02-23T20:27:44.721Z,19.13
2023-02-23T20:30:14.028Z,22.83
2023-02-23T20:32:41.932Z,19.83
2023-02-23T20:35:13.638Z,16.30
2023-02-23T20:37:41.604Z,19.63
2023-02-23T20:40:18.274Z,17.00
2023-02-23T20:42:47.860Z,17.50
2023-02-23T20:45:18.176Z,19.37
2023-02-23T20:47:46.909Z,19.40
2023-02-23T20:50:15.796Z,17.90
2023-02-23T20:52:44.224Z,19.90
2023-02-23T20:55:19.207Z,20.03
2023-02-23T20:57:47.792Z,19.93
2023-02-23T21:00:22.559Z,16.67
2023-02-23T21:02:55.398Z,18.20
2023-02-23T21:05:25.148Z,20.13
2023-02-23T21:07:53.366Z,15.80
2023-02-23T21:10:23.852Z,19.40
2023-02-23T21:12:53.003Z,18.47
2023-02-23T21:15:20.871Z,16.80
2023-02-23T21:17:50.456Z,18.50
2023-02-23T21:20:21.983Z,20.57
2023-02-23T21:22:50.144Z,18.60
2023-02-23T21:25:19.372Z,20.27
2023-02-23T21:27:49.249Z,19.33
2023-02-23T21:30:22.301Z,19.33
2023-02-23T21:32:55.442Z,18.37
2023-02-23T21:35:23.373Z,20.90
2023-02-23T21:37:59.317Z,16.57
2023-02-23T21:40:27.184Z,18.77
2023-02-23T21:43:01.200Z,19.20
2023-02-23T21:45:31.617Z,21.00
2023-02-23T21:47:59.420Z,18.57
2023-02-23T21:50:27.213Z,21.43
2023-02-23T21:52:58.185Z,21.37
2023-02-23T21:55:26.032Z,20.40
2023-02-23T21:58:16.045Z,21.20
2023-02-23T22:00:47.772Z,23.83
2023-02-23T22:03:15.602Z,22.80
2023-02-23T22:05:53.575Z,22.37
2023-02-23T22:08:21.645Z,21.37
2023-02-23T22:10:49.427Z,20.23
2023-02-23T22:13:21.896Z,23.40
2023-02-23T22:15:51.780Z,22.37
2023-02-23T22:18:19.619Z,20.40
2023-02-23T22:20:55.347Z,22.07
2023-02-23T22:23:23.357Z,20.23
2023-02-23T22:25:51.232Z,23.23
2023-02-23T22:28:20.380Z,24.77
2023-02-23T22:30:51.045Z,23.20
2023-02-23T22:33:20.301Z,22.73
2023-02-23T22:35:50.848Z,21.77
2023-02-23T22:38:20.340Z,22.57
2023-02-23T22:40:48.856Z,22.67
2023-02-23T22:43:17.097Z,22.27
2023-02-23T22:45:46.321Z,21.67
2023-02-23T22:48:14.423Z,22.57
2023-02-23T22:50:45.170Z,22.53
2023-02-23T22:53:12.934Z,21.57
2023-02-23T22:55:40.907Z,23.20
2023-02-23T22:58:10.353Z,23.37
2023-02-23T23:00:38.141Z,22.77
2023-02-23T23:03:07.502Z,27.43
2023-02-23T23:05:38.475Z,26.37
2023-02-23T23:08:07.330Z,31.73
2023-02-23T23:10:35.053Z,32.43
2023-02-23T23:13:03.143Z,30.10
2023-02-23T23:15:33.547Z,32.73
2023-02-23T23:18:03.590Z,35.60
2023-02-23T23:20:34.835Z,32.67
2023-02-23T23:23:02.711Z,35.20
2023-02-23T23:25:30.629Z,33.50
2023-02-23T23:27:59.492Z,34.23
2023-02-23T23:30:29.485Z,23.83
2023-02-23T23:33:00.492Z,20.20
2023-02-23T23:35:28.741Z,20.93
2023-02-23T23:38:01.637Z,18.20
2023-02-23T23:40:35.911Z,18.97
2023-02-23T23:43:07.501Z,21.97
2023-02-23T23:45:38.330Z,18.73
2023-02-23T23:48:09.426Z,22.27
2023-02-23T23:50:39.486Z,22.60
2023-02-23T23:53:10.579Z,21.10
2023-02-23T23:55:38.521Z,25.50
2023-02-23T23:58:09.504Z,18.77
